Time;durP1;ratioP1;P1;durP2;ratioP2;P2;SDS_P1;SDS_P2;PMS_P1;PMS_P2;Temp;Humidity;BMP_temperature;BMP_pressure;BME280_temperature;BME280_humidity;BME280_pressure;Samples;Min_cycle;Max_cycle;Signal;HPM_P1;HPM_P2
2023/01/06 00:02:08;;;;;;;1.63;1.40;;;8.90;99.90;;;;;;4944703;29;20424;-80
2023/01/06 00:04:35;;;;;;;1.40;1.30;;;8.90;99.90;;;;;;4944147;29;20439;-80
2023/01/06 00:07:01;;;;;;;1.83;1.60;;;9.10;99.90;;;;;;4944286;29;20441;-80
2023/01/06 00:09:28;;;;;;;2.63;1.80;;;9.00;99.90;;;;;;4944185;29;20551;-80
2023/01/06 00:11:55;;;;;;;2.53;1.57;;;8.90;99.90;;;;;;4943996;29;20440;-80
2023/01/06 00:14:22;;;;;;;1.70;1.37;;;9.00;99.90;;;;;;4943313;29;20897;-80
2023/01/06 00:16:49;;;;;;;1.70;1.60;;;8.90;99.90;;;;;;4943338;29;20519;-81
2023/01/06 00:19:17;;;;;;;11.67;6.97;;;8.80;99.90;;;;;;4943255;29;20507;-79
2023/01/06 00:21:44;;;;;;;2.60;1.77;;;8.70;99.90;;;;;;4943108;29;20467;-80
2023/01/06 00:24:11;;;;;;;2.97;1.50;;;8.70;99.90;;;;;;4943282;29;20464;-80
2023/01/06 00:26:38;;;;;;;2.20;1.50;;;8.80;99.90;;;;;;4942667;29;20428;-81
2023/01/06 00:29:05;;;;;;;1.93;1.73;;;9.00;99.90;;;;;;4939976;29;20532;-81
2023/01/06 00:31:31;;;;;;;1.80;1.63;;;9.10;99.90;;;;;;4942499;29;20497;-80
2023/01/06 00:33:58;;;;;;;3.07;1.70;;;9.10;99.90;;;;;;4942732;29;20520;-80
2023/01/06 00:36:26;;;;;;;1.47;1.37;;;9.00;99.90;;;;;;4943059;29;20653;-81
2023/01/06 00:38:53;;;;;;;1.70;1.53;;;9.00;99.90;;;;;;4942994;29;20461;-81
2023/01/06 00:44:05;;;;;;;1.93;1.73;;;9.10;99.90;;;;;;4943638;29;20439;-81
2023/01/06 00:46:33;;;;;;;2.63;1.40;;;9.00;99.90;;;;;;4929450;29;20516;-81
2023/01/06 00:49:01;;;;;;;1.93;1.70;;;9.00;99.90;;;;;;4923342;29;20457;-81
2023/01/06 00:51:29;;;;;;;2.83;2.00;;;9.00;99.90;;;;;;4923166;29;20512;-80
2023/01/06 00:53:56;;;;;;;1.83;1.57;;;9.10;99.90;;;;;;4922969;29;20434;-81
2023/01/06 00:56:22;;;;;;;1.40;1.30;;;9.10;99.90;;;;;;4923321;29;20525;-80
2023/01/06 00:58:49;;;;;;;1.70;1.60;;;9.00;99.90;;;;;;4923881;29;20534;-81
2023/01/06 01:01:16;;;;;;;1.50;1.40;;;9.10;99.90;;;;;;4923625;29;20445;-81
2023/01/06 01:03:43;;;;;;;1.87;1.20;;;8.90;99.90;;;;;;4923712;29;20453;-81
2023/01/06 01:06:10;;;;;;;1.60;1.50;;;9.00;99.90;;;;;;4923528;29;20485;-81
2023/01/06 01:08:38;;;;;;;2.40;1.57;;;9.00;99.90;;;;;;4923186;29;20450;-81
2023/01/06 01:11:06;;;;;;;2.10;1.63;;;8.90;99.90;;;;;;4923538;29;20568;-80
2023/01/06 01:13:34;;;;;;;4.27;1.50;;;8.80;99.90;;;;;;4923666;29;20509;-80
2023/01/06 01:16:04;;;;;;;1.67;1.57;;;8.80;99.90;;;;;;4923782;29;20481;-81
2023/01/06 01:18:30;;;;;;;1.30;1.20;;;8.80;99.90;;;;;;4923247;29;20538;-81
2023/01/06 01:20:57;;;;;;;2.83;1.50;;;8.60;99.90;;;;;;4923753;29;20473;-80
2023/01/06 01:23:24;;;;;;;1.63;1.37;;;8.60;99.90;;;;;;4923503;29;20501;-81
2023/01/06 01:25:56;;;;;;;1.60;1.40;;;8.70;99.90;;;;;;4923152;29;20437;-81
2023/01/06 01:28:23;;;;;;;1.47;1.37;;;8.50;99.90;;;;;;4921575;29;20514;-81
2023/01/06 01:30:50;;;;;;;1.40;1.30;;;8.60;99.90;;;;;;4922201;29;20453;-81
2023/01/06 01:33:16;;;;;;;1.40;1.30;;;8.60;99.90;;;;;;4922739;29;20449;-80
2023/01/06 01:35:43;;;;;;;1.60;1.40;;;8.70;99.90;;;;;;4922663;29;20446;-80
2023/01/06 01:38:10;;;;;;;1.40;1.23;;;8.60;99.90;;;;;;4922386;29;20461;-81
2023/01/06 01:40:37;;;;;;;2.03;1.60;;;8.60;99.90;;;;;;4922582;29;20500;-81
2023/01/06 01:43:06;;;;;;;2.00;1.50;;;8.30;99.90;;;;;;4922502;29;20444;-81
2023/01/06 01:45:33;;;;;;;3.20;1.30;;;8.30;99.90;;;;;;4922220;29;20505;-81
2023/01/06 01:48:03;;;;;;;2.03;1.63;;;8.20;99.90;;;;;;4922457;29;20422;-80
2023/01/06 01:50:34;;;;;;;1.63;1.53;;;8.20;99.90;;;;;;4923321;29;20457;-81
2023/01/06 01:53:05;;;;;;;2.50;2.00;;;8.20;99.90;;;;;;4941343;29;20477;-80
2023/01/06 01:55:34;;;;;;;2.10;1.43;;;8.20;99.90;;;;;;4941154;29;20506;-81
2023/01/06 01:58:07;;;;;;;1.40;1.30;;;8.20;99.90;;;;;;4941555;29;20461;-81
2023/01/06 02:00:35;;;;;;;1.70;1.40;;;8.20;99.90;;;;;;4941308;29;20523;-81
2023/01/06 02:03:04;;;;;;;1.67;1.30;;;8.20;99.90;;;;;;4940966;29;20443;-81
2023/01/06 02:05:32;;;;;;;1.87;1.47;;;8.10;99.90;;;;;;4941710;29;20529;-80
2023/01/06 02:08:04;;;;;;;2.10;1.33;;;7.90;99.90;;;;;;4942049;29;20460;-80
2023/01/06 02:10:30;;;;;;;2.03;1.30;;;7.80;99.90;;;;;;4921421;29;20571;-80
2023/01/06 02:12:59;;;;;;;2.13;1.93;;;7.80;99.90;;;;;;4921826;29;20430;-81
2023/01/06 02:15:31;;;;;;;1.53;1.37;;;7.70;99.90;;;;;;4922014;29;20596;-80
2023/01/06 02:18:21;;;;;;;1.70;1.40;;;7.80;99.90;;;;;;4921945;29;20445;-82
2023/01/06 02:21:16;;;;;;;2.37;1.47;;;7.80;99.90;;;;;;4922645;29;20484;-81
2023/01/06 02:24:12;;;;;;;1.80;1.40;;;7.70;99.90;;;;;;4922526;29;20504;-82
2023/01/06 02:27:09;;;;;;;1.50;1.40;;;7.60;99.90;;;;;;4922300;29;20465;-81
2023/01/06 02:30:24;;;;;;;1.70;1.43;;;7.60;99.90;;;;;;4922349;29;20521;-81
2023/01/06 02:33:05;;;;;;;1.77;1.50;;;7.60;99.90;;;;;;4922128;29;20468;-80
2023/01/06 02:35:57;;;;;;;1.90;1.70;;;7.50;99.90;;;;;;4923034;29;20453;-80
2023/01/06 02:38:39;;;;;;;2.10;1.90;;;7.30;99.90;;;;;;4922960;29;20441;-80
2023/01/06 02:41:12;;;;;;;2.23;1.60;;;7.20;99.90;;;;;;4922029;29;20579;-80
2023/01/06 02:43:47;;;;;;;2.93;1.77;;;7.10;99.90;;;;;;4922552;29;20426;-81
2023/01/06 02:46:34;;;;;;;2.00;1.80;;;7.10;99.90;;;;;;4922428;29;20456;-80
2023/01/06 02:49:12;;;;;;;2.20;1.90;;;7.00;99.90;;;;;;4922511;29;20506;-80
2023/01/06 02:51:46;;;;;;;2.53;1.50;;;7.00;99.90;;;;;;4922602;29;20422;-80
2023/01/06 02:54:20;;;;;;;1.80;1.70;;;6.90;99.90;;;;;;4922562;29;20574;-81
2023/01/06 02:56:54;;;;;;;2.03;1.63;;;6.90;99.90;;;;;;4925268;29;20490;-80
2023/01/06 02:59:25;;;;;;;2.00;1.80;;;6.90;99.90;;;;;;4941399;29;20511;-81
2023/01/06 03:01:54;;;;;;;2.23;2.00;;;6.90;99.90;;;;;;5305553;23;20504;-77
2023/01/06 03:09:40;;;;;;;1.87;1.60;;;6.90;99.90;;;;;;6044477;23;20414;31
2023/01/06 03:22:27;;;;;;;2.10;1.50;;;6.80;99.90;;;;;;5043717;23;20475;-81
2023/01/06 03:50:30;;;;;;;1.50;1.40;;;6.80;99.90;;;;;;4981784;28;20450;-85
2023/01/06 04:18:36;;;;;;;1.17;1.00;;;6.80;99.90;;;;;;4942769;29;20479;-94
2023/01/06 04:21:03;;;;;;;2.10;1.30;;;7.60;99.90;;;;;;4942323;29;20591;-95
2023/01/06 04:23:31;;;;;;;1.40;1.30;;;7.20;99.90;;;;;;4951502;29;20444;-94
2023/01/06 04:25:58;;;;;;;1.50;1.40;;;7.30;99.90;;;;;;4943279;29;20858;-94
2023/01/06 04:28:26;;;;;;;3.13;1.60;;;6.30;99.90;;;;;;4943624;29;20520;-94
2023/01/06 04:30:53;;;;;;;1.77;1.53;;;7.00;99.90;;;;;;4947106;29;20483;-94
2023/01/06 04:33:20;;;;;;;1.70;1.30;;;6.40;99.90;;;;;;4949515;29;21027;-94
2023/01/06 04:35:48;;;;;;;1.47;1.37;;;6.40;99.90;;;;;;4963079;28;20459;-92
2023/01/06 04:38:15;;;;;;;1.70;1.23;;;6.40;99.90;;;;;;4962048;28;20436;-93
2023/01/06 04:40:42;;;;;;;1.80;1.40;;;7.90;99.90;;;;;;4940097;29;21107;-93
2023/01/06 04:43:14;;;;;;;1.50;1.40;;;6.50;99.90;;;;;;4946876;29;20444;-96
2023/01/06 04:45:43;;;;;;;1.60;1.50;;;8.00;99.90;;;;;;4942745;29;20971;-93
2023/01/06 04:48:10;;;;;;;2.37;1.20;;;7.80;99.90;;;;;;4943428;29;20936;-96
2023/01/06 04:50:40;;;;;;;1.63;1.53;;;6.90;99.90;;;;;;4955541;28;20432;-90
2023/01/06 04:55:44;;;;;;;1.50;1.13;;;6.30;99.90;;;;;;5084603;23;20468;-82
2023/01/06 04:58:11;;;;;;;1.37;1.27;;;6.10;99.90;;;;;;4964355;29;20441;-79
2023/01/06 05:05:44;;;;;;;1.40;1.30;;;6.10;99.90;;;;;;4961745;29;20479;-79
2023/01/06 05:20:50;;;;;;;1.53;1.30;;;6.20;99.90;;;;;;4960854;29;20479;-91
2023/01/06 05:23:17;;;;;;;2.70;1.60;;;7.70;99.90;;;;;;4962546;29;20432;-86
2023/01/06 05:30:46;;;;;;;2.03;1.20;;;6.10;99.90;;;;;;4971935;29;20470;-89
2023/01/06 05:33:13;;;;;;;1.80;1.30;;;5.80;99.90;;;;;;4971036;29;20443;-92
2023/01/06 05:35:40;;;;;;;1.60;1.40;;;6.30;99.90;;;;;;4978237;28;20452;-93
2023/01/06 05:38:09;;;;;;;1.73;1.53;;;7.10;99.90;;;;;;4977007;28;20482;-92
2023/01/06 05:40:36;;;;;;;1.53;1.40;;;7.30;99.90;;;;;;4965609;28;20537;-95
2023/01/06 05:43:03;;;;;;;2.17;1.60;;;7.60;99.90;;;;;;4963062;28;20447;-94
2023/01/06 05:45:30;;;;;;;1.50;1.30;;;8.40;99.90;;;;;;4961668;29;20539;-94
2023/01/06 05:47:58;;;;;;;1.77;1.67;;;5.80;99.90;;;;;;4961441;29;20445;-94
2023/01/06 05:50:25;;;;;;;1.30;1.20;;;6.00;99.90;;;;;;4962657;29;20451;-94
2023/01/06 05:52:52;;;;;;;1.57;1.47;;;6.30;99.90;;;;;;4972495;29;20432;-94
2023/01/06 05:55:20;;;;;;;1.43;1.30;;;7.30;99.90;;;;;;4977909;28;20514;-94
2023/01/06 05:57:47;;;;;;;2.10;1.40;;;6.00;99.90;;;;;;4978158;28;20475;-93
2023/01/06 06:00:15;;;;;;;1.57;1.47;;;7.70;99.90;;;;;;4968305;28;20454;-91
2023/01/06 06:02:42;;;;;;;1.40;1.30;;;5.90;99.90;;;;;;4962078;29;20866;-93
2023/01/06 06:05:09;;;;;;;1.20;1.10;;;5.70;99.90;;;;;;4963185;29;20467;-92
2023/01/06 06:07:36;;;;;;;1.90;1.33;;;5.80;99.90;;;;;;4961825;29;20427;-93
2023/01/06 06:10:03;;;;;;;1.53;1.10;;;5.70;99.90;;;;;;4964244;29;20481;-92
2023/01/06 06:12:32;;;;;;;1.30;1.20;;;5.80;99.90;;;;;;4952143;29;21002;-91
2023/01/06 06:14:58;;;;;;;2.53;1.20;;;5.80;99.90;;;;;;4940187;29;20956;-93
2023/01/06 06:17:25;;;;;;;1.30;0.90;;;5.70;99.90;;;;;;4940018;29;20443;-90
2023/01/06 06:19:52;;;;;;;1.03;0.93;;;5.80;99.90;;;;;;4936388;29;20538;-91
2023/01/06 06:22:19;;;;;;;8.07;1.40;;;5.80;99.90;;;;;;4933128;29;20492;-92
2023/01/06 06:24:46;;;;;;;1.40;1.07;;;5.80;99.90;;;;;;4927511;29;20447;-92
2023/01/06 06:27:14;;;;;;;1.27;1.17;;;5.60;99.90;;;;;;4924653;29;20469;-92
2023/01/06 06:29:42;;;;;;;1.40;1.00;;;5.50;99.90;;;;;;4937689;28;20776;-90
2023/01/06 06:32:09;;;;;;;1.20;1.10;;;5.60;99.90;;;;;;4943873;28;20538;-91
2023/01/06 06:34:35;;;;;;;1.10;1.00;;;5.50;99.90;;;;;;4943984;29;20470;-91
2023/01/06 06:37:02;;;;;;;1.50;1.07;;;5.40;99.90;;;;;;4947676;28;20590;-92
2023/01/06 06:39:29;;;;;;;1.30;1.10;;;5.60;99.90;;;;;;4949288;28;20478;-91
2023/01/06 06:41:56;;;;;;;1.73;1.10;;;5.70;99.90;;;;;;4943800;28;20498;-90
2023/01/06 06:44:22;;;;;;;1.33;0.80;;;5.70;99.90;;;;;;4945960;28;20477;-89
2023/01/06 06:46:51;;;;;;;1.00;0.90;;;5.60;99.90;;;;;;4941275;29;20444;-92
2023/01/06 06:49:17;;;;;;;1.00;0.90;;;5.50;99.90;;;;;;4946753;28;20815;-92
2023/01/06 06:51:46;;;;;;;1.60;1.20;;;5.60;99.90;;;;;;4944424;29;20948;-92
2023/01/06 06:54:12;;;;;;;3.50;1.67;;;5.60;99.90;;;;;;4945690;28;20451;-89
2023/01/06 06:56:39;;;;;;;1.20;1.10;;;5.50;99.90;;;;;;4946062;28;20440;-92
2023/01/06 06:59:06;;;;;;;1.33;1.10;;;5.50;99.90;;;;;;4947551;28;20448;-91
2023/01/06 07:01:33;;;;;;;1.33;1.23;;;5.60;99.90;;;;;;4951070;28;20558;-89
2023/01/06 07:04:01;;;;;;;2.13;1.40;;;5.70;99.90;;;;;;4960711;28;20462;-88
2023/01/06 07:06:28;;;;;;;3.10;1.63;;;5.60;99.90;;;;;;4965248;28;20431;-88
2023/01/06 07:08:55;;;;;;;1.77;1.50;;;5.60;99.90;;;;;;4956693;28;20502;-91
2023/01/06 07:11:21;;;;;;;2.00;1.30;;;5.60;99.90;;;;;;4958423;28;20445;-94
2023/01/06 07:13:48;;;;;;;1.30;1.20;;;5.50;99.90;;;;;;4960175;28;20454;-91
2023/01/06 07:16:16;;;;;;;1.40;1.30;;;5.50;99.90;;;;;;4961886;28;20979;-93
2023/01/06 07:18:42;;;;;;;1.27;1.17;;;5.50;99.90;;;;;;4961913;28;20467;-91
2023/01/06 07:21:10;;;;;;;1.57;1.47;;;5.60;99.90;;;;;;4962170;28;20495;-88
2023/01/06 07:23:37;;;;;;;3.83;2.20;;;5.60;99.90;;;;;;4953204;28;20701;-87
2023/01/06 07:26:04;;;;;;;1.63;1.53;;;5.60;99.90;;;;;;4952729;28;20538;-88
2023/01/06 07:28:32;;;;;;;1.60;1.27;;;5.60;99.90;;;;;;4952394;28;20541;-90
2023/01/06 07:30:59;;;;;;;1.40;1.30;;;5.70;99.90;;;;;;4951911;28;20951;-89
2023/01/06 07:33:28;;;;;;;1.47;1.27;;;5.70;99.90;;;;;;4952031;28;20450;-89
2023/01/06 07:35:56;;;;;;;1.20;1.10;;;5.60;99.90;;;;;;4951716;28;20985;-90
2023/01/06 07:38:24;;;;;;;1.93;1.20;;;5.60;99.90;;;;;;4953469;28;20439;-91
2023/01/06 07:40:51;;;;;;;1.57;1.33;;;5.50;99.90;;;;;;4954174;28;20461;-90
2023/01/06 07:43:18;;;;;;;1.40;1.20;;;5.50;99.90;;;;;;4954942;28;20490;-86
2023/01/06 07:45:47;;;;;;;1.10;1.00;;;5.50;99.90;;;;;;4956476;29;20447;-89
2023/01/06 07:48:14;;;;;;;1.20;0.90;;;5.50;99.90;;;;;;4955166;28;20443;-85
2023/01/06 07:50:40;;;;;;;1.30;1.00;;;5.60;99.90;;;;;;4954036;28;20473;-92
2023/01/06 07:53:09;;;;;;;1.47;1.37;;;5.60;99.90;;;;;;4938475;29;20475;-90
2023/01/06 07:55:37;;;;;;;1.23;1.00;;;5.60;99.90;;;;;;4942252;28;20474;-91
2023/01/06 07:58:05;;;;;;;1.10;1.00;;;5.80;99.90;;;;;;4937463;29;20523;-91
2023/01/06 08:00:33;;;;;;;1.20;1.10;;;5.80;99.90;;;;;;4941163;29;20444;-89
2023/01/06 08:03:03;;;;;;;1.50;1.10;;;5.90;99.90;;;;;;4947095;29;20578;-91
2023/01/06 08:05:30;;;;;;;3.47;1.10;;;6.00;99.90;;;;;;4946060;29;20475;-93
2023/01/06 08:07:57;;;;;;;0.97;0.73;;;6.10;99.90;;;;;;4944748;29;20452;-91
2023/01/06 08:10:24;;;;;;;1.40;1.00;;;6.20;99.90;;;;;;4956495;28;20486;-94
2023/01/06 08:12:52;;;;;;;1.50;1.27;;;6.20;99.90;;;;;;4962047;28;20803;-91
2023/01/06 08:15:19;;;;;;;1.00;0.90;;;6.20;99.90;;;;;;4962974;28;20453;-91
2023/01/06 08:17:46;;;;;;;1.73;1.07;;;6.20;99.90;;;;;;4960496;28;20451;-83
2023/01/06 08:20:13;;;;;;;0.97;0.87;;;6.10;99.90;;;;;;4959202;28;20453;-93
2023/01/06 08:22:40;;;;;;;1.70;1.00;;;6.00;99.90;;;;;;4958686;28;20487;-79
2023/01/06 08:25:08;;;;;;;1.23;1.13;;;6.20;99.90;;;;;;4955101;28;20454;-83
2023/01/06 08:27:34;;;;;;;1.60;1.23;;;6.20;99.90;;;;;;4958021;28;20963;-94
2023/01/06 08:30:03;;;;;;;1.70;1.30;;;6.30;99.90;;;;;;4966697;28;20510;-92
2023/01/06 08:37:40;;;;;;;1.60;1.50;;;6.60;99.90;;;;;;5019494;23;20490;-92
2023/01/06 08:40:08;;;;;;;2.20;1.17;;;6.80;99.90;;;;;;4969482;29;20528;-92
2023/01/06 08:42:35;;;;;;;1.50;1.20;;;6.60;99.90;;;;;;4971334;29;20941;-94
2023/01/06 08:45:05;;;;;;;1.40;1.10;;;6.90;99.90;;;;;;5034795;23;20536;-93
2023/01/06 09:05:40;;;;;;;1.70;1.30;;;6.80;99.90;;;;;;5129491;23;20502;-87
2023/01/06 09:08:07;;;;;;;1.87;1.20;;;6.90;99.90;;;;;;5058908;23;20508;-94
2023/01/06 09:10:37;;;;;;;1.40;1.27;;;7.10;99.90;;;;;;4945612;29;20479;-91
2023/01/06 09:13:04;;;;;;;1.50;1.40;;;7.10;99.90;;;;;;4950039;29;20543;-93
2023/01/06 09:15:31;;;;;;;1.90;1.70;;;7.10;99.90;;;;;;4954601;29;20468;-95
2023/01/06 09:17:58;;;;;;;1.40;1.30;;;7.20;99.90;;;;;;4957200;29;20456;-82
2023/01/06 09:20:25;;;;;;;3.20;1.30;;;7.20;99.90;;;;;;4949742;29;20495;-80
2023/01/06 09:33:07;;;;;;;1.20;1.10;;;7.80;99.90;;;;;;5169864;23;20476;-77
2023/01/06 09:35:34;;;;;;;1.20;1.10;;;7.60;99.90;;;;;;4963626;29;20397;-79
2023/01/06 09:38:01;;;;;;;1.50;1.10;;;8.20;99.90;;;;;;4963619;29;20407;-78
2023/01/06 09:43:12;;;;;;;0.93;0.83;;;8.20;99.90;;;;;;5422491;23;20502;-91
2023/01/06 09:53:22;;;;;;;0.90;0.80;;;8.60;99.90;;;;;;4950552;29;20484;-93
2023/01/06 09:55:52;;;;;;;0.90;0.80;;;8.60;99.90;;;;;;4953580;28;20451;-88
2023/01/06 10:11:26;;;;;;;1.53;1.13;;;9.30;99.90;;;;;;5970685;23;20430;-87
2023/01/06 10:16:39;;;;;;;1.03;0.90;;;9.20;99.90;;;;;;5580082;23;20492;-93
2023/01/06 10:21:48;;;;;;;1.50;0.90;;;9.30;99.90;;;;;;5174092;23;20479;-92
2023/01/06 10:32:03;;;;;;;1.30;1.10;;;9.60;99.90;;;;;;4970485;23;20480;-93
2023/01/06 10:34:34;;;;;;;1.00;0.90;;;9.60;99.90;;;;;;4954624;29;20456;-94
2023/01/06 11:02:39;;;;;;;3.50;2.80;;;9.70;99.90;;;;;;6002083;23;21223;31
2023/01/06 11:05:13;;;;;;;1.53;1.43;;;9.70;99.90;;;;;;5261465;23;20496;-79
2023/01/06 11:07:51;;;;;;;1.50;1.40;;;9.70;99.90;;;;;;4927271;29;20473;-76
2023/01/06 11:10:29;;;;;;;5.50;2.83;;;9.80;99.90;;;;;;4910073;29;20495;-76
2023/01/06 11:12:58;;;;;;;1.73;1.63;;;9.70;99.90;;;;;;4914352;29;20452;-75
2023/01/06 11:15:34;;;;;;;2.37;1.90;;;9.70;99.90;;;;;;4923187;29;20449;-93
2023/01/06 11:18:01;;;;;;;2.27;1.70;;;9.70;99.90;;;;;;4929838;29;20508;-93
2023/01/06 11:20:32;;;;;;;1.67;1.40;;;9.70;99.90;;;;;;4927688;29;20811;-92
2023/01/06 11:23:14;;;;;;;2.60;1.70;;;9.60;99.90;;;;;;4926485;29;20501;-95
2023/01/06 11:25:41;;;;;;;1.60;1.50;;;9.70;99.90;;;;;;4924064;29;20464;-93
2023/01/06 11:28:19;;;;;;;2.27;1.50;;;9.70;99.90;;;;;;4920168;29;20465;-93
2023/01/06 11:30:51;;;;;;;1.63;1.43;;;9.70;99.90;;;;;;4923359;29;20449;-93
2023/01/06 11:33:20;;;;;;;1.73;1.63;;;9.90;99.90;;;;;;4926458;29;20445;-92
2023/01/06 11:35:49;;;;;;;2.13;1.80;;;9.80;99.90;;;;;;4924205;29;20444;-91
2023/01/06 11:38:19;;;;;;;1.67;1.57;;;9.90;99.90;;;;;;4936672;29;20463;-85
2023/01/06 11:40:48;;;;;;;1.70;1.60;;;10.10;99.90;;;;;;5054464;23;20506;-82
2023/01/06 11:45:53;;;;;;;2.73;2.53;;;10.90;99.90;;;;;;4917856;29;20468;-89
2023/01/06 11:48:22;;;;;;;2.00;1.90;;;9.60;99.90;;;;;;4920810;29;21069;-94
2023/01/06 11:53:28;;;;;;;4.27;2.17;;;10.80;99.90;;;;;;5609205;23;20467;-79
2023/01/06 11:56:01;;;;;;;4.97;3.10;;;11.30;99.90;;;;;;4963651;28;20503;-82
2023/01/06 12:01:09;;;;;;;2.60;2.00;;;10.70;99.90;;;;;;5338039;23;20507;-91
2023/01/06 12:03:41;;;;;;;3.30;2.80;;;10.40;99.90;;;;;;4935392;29;20493;-89
2023/01/06 12:06:21;;;;;;;2.50;2.03;;;11.80;99.90;;;;;;4941456;29;20512;-93
2023/01/06 12:08:56;;;;;;;2.40;2.20;;;9.90;99.90;;;;;;4940711;29;20463;-92
2023/01/06 12:11:34;;;;;;;3.13;2.33;;;10.30;99.90;;;;;;4958136;28;20443;-92
2023/01/06 12:14:02;;;;;;;3.80;2.80;;;11.50;99.90;;;;;;5162528;23;20450;-90
2023/01/06 12:16:36;;;;;;;2.47;2.27;;;10.70;99.90;;;;;;4958041;28;20463;-92
2023/01/06 12:19:13;;;;;;;3.03;2.63;;;11.20;99.90;;;;;;4956653;29;20451;-93
2023/01/06 13:40:09;;;;;;;1.40;1.20;;;10.40;99.90;;;;;;4951233;29;20471;-91
2023/01/06 13:47:51;;;;;;;1.47;1.10;;;11.30;99.90;;;;;;5178151;23;20494;-81
2023/01/06 13:50:20;;;;;;;1.43;1.13;;;9.90;99.90;;;;;;5011957;23;20515;-89
2023/01/06 13:52:48;;;;;;;1.50;1.20;;;10.80;99.90;;;;;;5676875;23;20872;-69
2023/01/06 14:03:24;;;;;;;1.87;1.30;;;9.70;99.90;;;;;;5387298;23;20540;-92
2023/01/06 14:05:59;;;;;;;1.10;1.00;;;9.60;99.90;;;;;;4934694;29;20457;-92
2023/01/06 14:08:32;;;;;;;1.00;0.90;;;9.80;99.90;;;;;;4931878;29;20444;-93
2023/01/06 14:11:06;;;;;;;1.47;1.13;;;9.00;99.90;;;;;;4931577;29;20461;-93
2023/01/06 14:13:37;;;;;;;1.03;0.90;;;9.50;99.90;;;;;;4933943;29;20448;-93
2023/01/06 14:16:07;;;;;;;1.27;1.17;;;9.50;99.90;;;;;;4906049;29;20478;-93
2023/01/06 14:18:38;;;;;;;1.30;1.20;;;9.50;99.90;;;;;;4897543;29;20449;-93
2023/01/06 14:21:15;;;;;;;1.10;1.00;;;9.40;99.90;;;;;;4925576;29;20465;-93
2023/01/06 14:23:51;;;;;;;0.80;0.80;;;9.30;99.90;;;;;;4930960;29;20567;-91
2023/01/06 14:26:18;;;;;;;1.00;0.90;;;9.40;99.90;;;;;;4930366;29;20444;-93
2023/01/06 14:28:44;;;;;;;1.40;1.17;;;9.30;99.90;;;;;;4917229;29;20454;-88
2023/01/06 14:31:39;;;;;;;1.00;0.90;;;9.30;99.90;;;;;;4916663;29;20465;-83
2023/01/06 14:34:11;;;;;;;1.20;1.00;;;9.30;99.90;;;;;;4918437;29;20494;-82
2023/01/06 14:36:39;;;;;;;1.27;1.17;;;9.30;99.90;;;;;;4912118;29;20540;-89
2023/01/06 14:39:17;;;;;;;1.57;1.20;;;9.30;99.90;;;;;;4912538;29;20460;-88
2023/01/06 14:41:51;;;;;;;1.10;1.00;;;9.20;99.90;;;;;;4913859;29;20452;-83
2023/01/06 14:44:21;;;;;;;1.63;1.00;;;9.20;99.90;;;;;;4923639;29;20472;-81
2023/01/06 14:46:51;;;;;;;1.10;1.00;;;9.20;99.90;;;;;;4916500;29;20459;-81
2023/01/06 14:49:23;;;;;;;3.20;1.20;;;9.30;99.90;;;;;;4916539;29;20468;-83
2023/01/06 14:51:52;;;;;;;4.20;1.57;;;9.30;99.90;;;;;;4909606;29;20520;-80
2023/01/06 14:54:25;;;;;;;1.13;1.03;;;9.30;99.90;;;;;;4919996;29;20853;-80
2023/01/06 14:56:53;;;;;;;1.30;1.20;;;9.20;99.90;;;;;;4927505;29;20459;-80
2023/01/06 14:59:21;;;;;;;1.10;0.90;;;9.20;99.90;;;;;;4930218;29;20438;-81
2023/01/06 15:01:57;;;;;;;1.33;1.23;;;9.10;99.90;;;;;;4926030;29;20461;-80
2023/01/06 15:04:29;;;;;;;1.10;1.00;;;9.30;99.90;;;;;;4951199;29;20924;-90
2023/01/06 15:07:01;;;;;;;4.50;1.10;;;9.10;99.90;;;;;;4943229;29;20440;-89
2023/01/06 15:09:29;;;;;;;1.30;1.20;;;9.10;99.90;;;;;;4944550;29;20570;-77
2023/01/06 15:11:56;;;;;;;1.60;1.30;;;9.10;99.90;;;;;;4928594;29;20444;-75
2023/01/06 15:14:31;;;;;;;1.40;1.10;;;9.10;99.90;;;;;;4921396;29;20880;-74
2023/01/06 15:17:01;;;;;;;2.37;1.23;;;9.10;99.90;;;;;;4919143;29;20835;-74
2023/01/06 15:19:30;;;;;;;1.57;1.47;;;9.10;99.90;;;;;;4921996;29;20456;-76
2023/01/06 15:21:59;;;;;;;1.90;1.50;;;9.00;99.90;;;;;;4921701;29;20460;-75
2023/01/06 15:24:27;;;;;;;2.30;1.70;;;9.00;99.90;;;;;;4924166;29;20591;-78
2023/01/06 15:27:04;;;;;;;2.17;1.00;;;9.00;99.90;;;;;;4906783;29;20556;-73
2023/01/06 15:29:31;;;;;;;1.60;1.33;;;9.00;99.90;;;;;;4904199;29;20469;-73
2023/01/06 15:31:58;;;;;;;1.80;1.00;;;9.00;99.90;;;;;;4917985;29;20882;-73
2023/01/06 15:34:32;;;;;;;1.77;1.60;;;9.00;99.90;;;;;;4911294;29;20459;-73
2023/01/06 15:37:01;;;;;;;2.23;1.00;;;9.00;99.90;;;;;;4901423;29;21268;-76
2023/01/06 15:39:30;;;;;;;1.53;1.17;;;8.90;99.90;;;;;;4888613;29;20837;-73
2023/01/06 15:41:57;;;;;;;1.33;1.10;;;8.90;99.90;;;;;;4907647;29;21124;-73
2023/01/06 15:44:30;;;;;;;2.23;1.20;;;8.90;99.90;;;;;;4907397;29;20507;-73
2023/01/06 15:47:06;;;;;;;1.80;1.20;;;8.90;99.90;;;;;;4907405;29;20862;-73
2023/01/06 15:49:37;;;;;;;1.40;1.20;;;8.90;99.90;;;;;;4896029;29;20458;-74
2023/01/06 15:52:08;;;;;;;1.57;1.30;;;8.80;99.90;;;;;;4890012;29;20563;-75
2023/01/06 15:54:38;;;;;;;2.63;1.90;;;8.80;99.90;;;;;;4888763;29;20462;-79
2023/01/06 15:57:11;;;;;;;2.37;1.97;;;8.80;99.90;;;;;;4896423;29;20477;-75
2023/01/06 15:59:38;;;;;;;3.00;2.00;;;8.80;99.90;;;;;;4890799;29;20489;-74
2023/01/06 16:02:06;;;;;;;1.57;1.47;;;8.80;99.90;;;;;;4888250;29;20489;-74
2023/01/06 16:04:34;;;;;;;1.40;1.30;;;8.70;99.90;;;;;;4887080;29;20568;-75
2023/01/06 16:07:32;;;;;;;1.83;1.20;;;8.70;99.90;;;;;;4888011;29;20466;-73
2023/01/06 16:09:59;;;;;;;1.80;1.30;;;8.70;99.90;;;;;;4887663;29;20485;-74
2023/01/06 16:12:26;;;;;;;1.50;1.40;;;8.70;99.90;;;;;;4888026;29;20465;-72
2023/01/06 16:14:53;;;;;;;1.50;1.20;;;8.80;99.90;;;;;;4887376;29;20851;-74
2023/01/06 16:17:27;;;;;;;1.60;1.40;;;8.70;99.90;;;;;;4888030;29;20465;-74
2023/01/06 16:20:28;;;;;;;1.30;1.20;;;8.70;99.90;;;;;;4898898;29;20471;-83
2023/01/06 16:26:06;;;;;;;1.20;1.10;;;8.70;99.90;;;;;;4924749;29;20452;-75
2023/01/06 16:28:44;;;;;;;1.93;1.50;;;8.70;99.90;;;;;;4910359;29;20469;-76
2023/01/06 16:31:13;;;;;;;2.03;1.30;;;8.70;99.90;;;;;;4910388;29;20556;-77
2023/01/06 16:33:42;;;;;;;1.70;1.60;;;8.70;99.90;;;;;;4909595;29;21107;-76
2023/01/06 16:36:16;;;;;;;1.83;1.27;;;8.70;99.90;;;;;;4910701;29;20452;-79
2023/01/06 16:38:43;;;;;;;4.00;1.80;;;8.60;99.90;;;;;;4910356;29;20451;-74
2023/01/06 16:41:15;;;;;;;2.87;1.40;;;8.60;99.90;;;;;;4910190;29;20460;-77
2023/01/06 16:43:43;;;;;;;2.00;1.73;;;8.70;99.90;;;;;;4908298;29;20497;-77
2023/01/06 16:46:16;;;;;;;1.43;1.20;;;8.60;99.90;;;;;;4910456;29;20472;-72
2023/01/06 16:48:43;;;;;;;2.07;1.80;;;8.60;99.90;;;;;;4909378;29;20472;-71
2023/01/06 16:51:16;;;;;;;1.20;1.10;;;8.60;99.90;;;;;;4922761;29;20452;-77
2023/01/06 16:53:43;;;;;;;1.40;1.30;;;8.60;99.90;;;;;;4928314;29;20452;-76
2023/01/06 16:56:20;;;;;;;1.77;1.60;;;8.60;99.90;;;;;;4928557;29;20538;-74
2023/01/06 16:58:48;;;;;;;2.30;2.10;;;8.60;99.90;;;;;;4927848;29;20529;-72
2023/01/06 17:01:16;;;;;;;2.37;1.80;;;8.60;99.90;;;;;;4896728;29;20972;-75
2023/01/06 17:03:44;;;;;;;1.50;1.40;;;8.50;99.90;;;;;;4890147;29;20493;-71
2023/01/06 17:06:12;;;;;;;1.73;1.40;;;8.50;99.90;;;;;;4890790;29;20933;-74
2023/01/06 17:08:41;;;;;;;2.47;1.60;;;8.50;99.90;;;;;;4890424;29;20457;-71
2023/01/06 17:11:14;;;;;;;1.47;1.37;;;8.50;99.90;;;;;;4890686;29;20504;-71
2023/01/06 17:13:44;;;;;;;1.60;1.50;;;8.50;99.90;;;;;;4906198;29;20479;-76
2023/01/06 17:16:16;;;;;;;1.73;1.57;;;8.50;99.90;;;;;;4909427;29;21033;-77
2023/01/06 17:18:55;;;;;;;1.73;1.50;;;8.50;99.90;;;;;;4891735;29;20825;-77
2023/01/06 17:21:24;;;;;;;5.43;1.70;;;8.50;99.90;;;;;;4906024;29;20714;-76
2023/01/06 17:23:55;;;;;;;2.30;1.77;;;8.50;99.90;;;;;;4901334;29;20508;-77
2023/01/06 17:26:23;;;;;;;1.53;1.43;;;8.50;99.90;;;;;;4909423;29;20799;-75
2023/01/06 17:28:53;;;;;;;3.13;2.03;;;8.50;99.90;;;;;;4908562;29;20540;-76
2023/01/06 17:31:30;;;;;;;4.23;1.80;;;8.50;99.90;;;;;;4909102;29;20949;-76
2023/01/06 17:33:58;;;;;;;2.83;1.70;;;8.50;99.90;;;;;;4907172;29;20469;-76
2023/01/06 17:36:30;;;;;;;2.10;1.90;;;8.50;99.90;;;;;;4908965;29;20464;-77
2023/01/06 17:38:58;;;;;;;3.93;2.33;;;8.50;99.90;;;;;;4909533;29;20468;-76
2023/01/06 17:41:28;;;;;;;2.20;2.07;;;8.50;99.90;;;;;;4909099;29;20459;-76
2023/01/06 17:43:54;;;;;;;2.13;2.00;;;8.50;99.90;;;;;;4908216;29;20526;-75
2023/01/06 17:46:29;;;;;;;1.93;1.63;;;8.50;99.90;;;;;;4919286;29;20543;-75
2023/01/06 17:49:01;;;;;;;2.73;2.40;;;8.50;99.90;;;;;;4928143;29;20563;-84
2023/01/06 17:51:28;;;;;;;3.03;2.23;;;8.50;99.90;;;;;;4914869;29;20508;-77
2023/01/06 17:56:41;;;;;;;2.00;1.90;;;8.40;99.90;;;;;;4908621;29;20597;-78
2023/01/06 17:59:15;;;;;;;2.00;1.90;;;8.40;99.90;;;;;;4909143;29;20464;-78
2023/01/06 18:01:42;;;;;;;3.00;2.40;;;8.40;99.90;;;;;;4909684;29;20457;-79
2023/01/06 18:04:13;;;;;;;3.43;1.87;;;8.40;99.90;;;;;;4908373;29;20501;-77
2023/01/06 18:06:43;;;;;;;2.50;2.30;;;8.40;99.90;;;;;;4907035;29;21002;-77
2023/01/06 18:09:14;;;;;;;3.50;2.37;;;8.40;99.90;;;;;;4909861;29;20491;-79